Time;durP1;ratioP1;P1;durP2;ratioP2;P2;SDS_P1;SDS_P2;PMS_P1;PMS_P2;Temp;Humidity;BMP_temperature;BMP_pressure;BME280_temperature;BME280_humidity;BME280_pressure;Samples;Min_cycle;Max_cycle;Signal;HPM_P1;HPM_P2
2021/10/12 00:02:25;;;;;;;32.97;9.67;;;9.30;1.00;;;;;;5049626;28;20414;-75
2021/10/12 00:04:51;;;;;;;15.97;9.20;;;;;;;;;;5048099;28;20419;-74
2021/10/12 00:07:16;;;;;;;28.93;11.13;;;9.30;1.00;;;;;;5050580;28;20436;-73
2021/10/12 00:09:42;;;;;;;22.73;10.17;;;9.30;1.00;;;;;;5048597;28;20431;-74
2021/10/12 00:12:13;;;;;;;21.67;10.20;;;;;;;;;;5058465;28;20204;-73
2021/10/12 00:14:39;;;;;;;21.63;10.00;;;9.10;1.00;;;;;;5036865;28;20407;-74
2021/10/12 00:17:07;;;;;;;23.37;9.53;;;9.10;1.00;;;;;;5055783;28;20433;-73
2021/10/12 00:19:33;;;;;;;22.33;9.93;;;;;;;;;;5055971;28;20433;-73
2021/10/12 00:22:01;;;;;;;26.13;11.07;;;;;;;;;;5053281;28;20417;-74
2021/10/12 00:24:27;;;;;;;21.23;9.60;;;;;;;;;;5053495;28;20522;-73
2021/10/12 00:26:55;;;;;;;19.40;9.30;;;;;;;;;;5055444;28;20430;-73
2021/10/12 00:29:21;;;;;;;20.43;10.50;;;;;;;;;;5053720;28;20398;-73
2021/10/12 00:31:49;;;;;;;17.83;9.27;;;;;;;;;;5051082;28;20462;-73
2021/10/12 00:34:19;;;;;;;20.73;9.60;;;;;;;;;;5055381;28;20739;-74
2021/10/12 00:36:48;;;;;;;19.00;9.50;;;;;;;;;;5041938;28;20898;-73
2021/10/12 00:39:14;;;;;;;26.20;10.07;;;8.90;1.00;;;;;;5046104;28;20447;-73
2021/10/12 00:41:40;;;;;;;38.20;10.40;;;8.90;1.00;;;;;;5052364;28;20459;-73
2021/10/12 00:44:07;;;;;;;18.30;9.40;;;9.00;1.00;;;;;;5060380;28;20666;-73
2021/10/12 00:46:32;;;;;;;26.13;9.70;;;9.00;1.00;;;;;;5042410;28;20537;-73
2021/10/12 00:48:59;;;;;;;20.70;10.13;;;9.00;1.00;;;;;;5044462;28;20918;-73
2021/10/12 00:51:26;;;;;;;17.90;9.10;;;9.00;1.00;;;;;;5052507;28;20520;-73
2021/10/12 00:53:52;;;;;;;19.63;9.60;;;;;;;;;;5045613;28;20514;-73
2021/10/12 00:56:19;;;;;;;15.23;8.53;;;;;;;;;;5049000;28;20435;-74
2021/10/12 00:58:46;;;;;;;17.70;9.10;;;9.10;1.00;;;;;;5036039;28;20404;-73
2021/10/12 01:01:12;;;;;;;15.83;8.03;;;9.10;1.00;;;;;;5048895;28;20426;-73
2021/10/12 01:03:38;;;;;;;14.00;8.23;;;;;;;;;;5034641;28;20437;-73
2021/10/12 01:06:04;;;;;;;16.23;7.93;;;;;;;;;;5044009;28;20458;-74
2021/10/12 01:08:37;;;;;;;18.47;9.57;;;;;;;;;;5045492;28;20433;-74
2021/10/12 01:11:03;;;;;;;18.17;8.30;;;;;;;;;;5045543;28;20916;-74
2021/10/12 01:13:29;;;;;;;24.93;9.80;;;;;;;;;;5054775;28;20457;-74
2021/10/12 01:15:56;;;;;;;14.03;8.77;;;;;;;;;;5043217;28;20434;-75
2021/10/12 01:18:22;;;;;;;17.53;8.27;;;;;;;;;;5041516;28;20485;-75
2021/10/12 01:20:52;;;;;;;20.67;9.77;;;9.10;1.00;;;;;;5049704;28;20422;-73
2021/10/12 01:23:19;;;;;;;26.00;9.80;;;;;;;;;;5054590;28;20512;-74
2021/10/12 01:25:45;;;;;;;16.40;8.73;;;;;;;;;;5047909;28;20422;-75
2021/10/12 01:28:11;;;;;;;23.90;9.50;;;;;;;;;;5040961;28;20418;-75
2021/10/12 01:30:38;;;;;;;16.80;7.97;;;;;;;;;;5052487;28;20955;-75
2021/10/12 01:33:05;;;;;;;25.13;8.97;;;;;;;;;;5054214;28;20460;-74
2021/10/12 01:35:32;;;;;;;21.10;9.33;;;;;;;;;;5042335;28;20448;-74
2021/10/12 01:37:57;;;;;;;16.13;8.07;;;9.10;1.00;;;;;;5053111;28;20402;-73
2021/10/12 01:40:23;;;;;;;12.60;7.60;;;;;;;;;;5035807;28;20518;-73
2021/10/12 01:42:49;;;;;;;14.97;7.77;;;;;;;;;;5051301;28;20195;-73
2021/10/12 01:45:16;;;;;;;12.63;7.20;;;;;;;;;;5046515;28;20910;-73
2021/10/12 01:47:42;;;;;;;16.73;8.27;;;;;;;;;;5048092;28;20414;-73
2021/10/12 01:50:10;;;;;;;19.67;9.13;;;9.20;1.00;;;;;;5043272;28;20437;-73
2021/10/12 01:52:36;;;;;;;18.03;8.63;;;;;;;;;;5052866;28;20458;-74
2021/10/12 01:55:03;;;;;;;19.47;7.33;;;;;;;;;;5048241;28;20461;-74
2021/10/12 01:57:29;;;;;;;18.53;8.27;;;;;;;;;;5053895;28;20928;-73
2021/10/12 02:00:01;;;;;;;16.37;8.53;;;;;;;;;;5046389;28;20427;-74
2021/10/12 02:02:27;;;;;;;18.40;8.33;;;;;;;;;;5053564;28;20488;-74
2021/10/12 02:04:53;;;;;;;14.63;7.60;;;;;;;;;;5053753;28;20442;-74
2021/10/12 02:07:19;;;;;;;16.20;7.60;;;;;;;;;;5053998;28;20888;-74
2021/10/12 02:09:49;;;;;;;16.63;7.37;;;;;;;;;;5053584;28;20881;-75
2021/10/12 02:12:19;;;;;;;16.60;7.57;;;;;;;;;;5053246;28;20458;-75
2021/10/12 02:14:45;;;;;;;19.77;8.50;;;;;;;;;;5043947;28;20423;-75
2021/10/12 02:17:11;;;;;;;14.73;8.17;;;;;;;;;;5047852;28;20462;-74
2021/10/12 02:19:37;;;;;;;24.70;8.43;;;;;;;;;;5053533;28;20429;-75
2021/10/12 02:22:03;;;;;;;11.17;6.60;;;;;;;;;;5062450;28;20434;-74
2021/10/12 02:24:31;;;;;;;13.93;8.00;;;;;;;;;;5048499;28;20890;-75
2021/10/12 02:26:57;;;;;;;30.03;7.80;;;;;;;;;;5050144;28;20807;-74
2021/10/12 02:29:23;;;;;;;18.03;7.20;;;9.40;1.00;;;;;;5046461;28;20543;-75
2021/10/12 02:31:48;;;;;;;15.03;7.60;;;9.50;1.00;;;;;;5052027;28;20526;-75
2021/10/12 02:34:14;;;;;;;17.63;7.77;;;;;;;;;;5053232;28;20176;-75
2021/10/12 02:36:49;;;;;;;12.97;6.87;;;9.50;1.00;;;;;;5053013;28;20638;-73
2021/10/12 02:39:14;;;;;;;17.43;7.80;;;9.50;1.00;;;;;;5052046;28;20917;-73
2021/10/12 02:41:43;;;;;;;11.87;6.20;;;9.50;1.00;;;;;;5061544;28;20436;-74
2021/10/12 02:44:08;;;;;;;11.00;6.83;;;9.60;1.00;;;;;;5053281;28;20673;-73
2021/10/12 02:46:34;;;;;;;14.40;7.20;;;;;;;;;;5053733;28;20418;-74
2021/10/12 02:49:00;;;;;;;12.77;6.60;;;;;;;;;;5045871;28;20184;-73
2021/10/12 02:51:26;;;;;;;15.00;7.13;;;9.70;1.00;;;;;;5041668;28;20881;-73
2021/10/12 02:53:52;;;;;;;14.80;6.70;;;9.80;1.00;;;;;;5047635;28;20441;-75
2021/10/12 02:56:18;;;;;;;21.47;8.63;;;;;;;;;;5044400;28;20438;-75
2021/10/12 02:58:44;;;;;;;15.40;6.90;;;;;;;;;;5057167;28;20293;-75
2021/10/12 03:01:10;;;;;;;18.97;9.00;;;;;;;;;;5051929;28;20874;-74
2021/10/12 03:03:36;;;;;;;21.40;8.23;;;9.90;1.00;;;;;;5057049;28;20467;-75
2021/10/12 03:06:02;;;;;;;16.40;7.30;;;9.90;1.00;;;;;;5048039;28;20501;-74
2021/10/12 03:08:28;;;;;;;15.80;7.60;;;9.80;1.00;;;;;;5048742;28;20245;-74
2021/10/12 03:10:54;;;;;;;13.07;7.67;;;9.90;1.00;;;;;;5050287;28;20213;-73
2021/10/12 03:13:20;;;;;;;14.10;8.07;;;;;;;;;;5036912;28;20458;-73
2021/10/12 03:15:46;;;;;;;14.40;7.83;;;;;;;;;;5046664;28;20469;-73
2021/10/12 03:18:12;;;;;;;17.20;8.70;;;;;;;;;;5048498;28;20521;-74
2021/10/12 03:20:38;;;;;;;12.77;6.53;;;;;;;;;;5051978;28;20497;-74
2021/10/12 03:23:04;;;;;;;16.07;7.90;;;;;;;;;;5037562;28;20510;-74
2021/10/12 03:25:30;;;;;;;16.43;8.27;;;;;;;;;;5047906;28;20417;-74
2021/10/12 03:27:56;;;;;;;16.30;7.30;;;;;;;;;;5055451;28;20505;-73
2021/10/12 03:30:23;;;;;;;11.43;6.60;;;;;;;;;;5054645;28;20834;-73
2021/10/12 03:32:49;;;;;;;19.47;8.37;;;;;;;;;;5045221;28;20458;-74
2021/10/12 03:35:19;;;;;;;13.70;7.37;;;;;;;;;;5054310;28;20915;-74
2021/10/12 03:37:44;;;;;;;16.47;7.83;;;10.10;1.00;;;;;;5041835;28;20423;-73
2021/10/12 03:40:11;;;;;;;15.97;7.20;;;;;;;;;;5055910;28;20464;-73
2021/10/12 03:42:37;;;;;;;16.90;7.50;;;;;;;;;;5064560;28;20188;-74
2021/10/12 03:45:03;;;;;;;10.67;7.10;;;;;;;;;;5051821;28;20431;-74
2021/10/12 03:47:29;;;;;;;18.10;8.33;;;;;;;;;;5046623;28;20433;-73
2021/10/12 03:49:55;;;;;;;15.67;7.60;;;;;;;;;;5051059;28;20443;-74
2021/10/12 03:52:25;;;;;;;24.63;8.53;;;;;;;;;;5044396;28;20953;-74
2021/10/12 03:54:51;;;;;;;17.30;7.60;;;;;;;;;;5055352;28;20901;-75
2021/10/12 03:57:19;;;;;;;13.00;7.20;;;;;;;;;;5054648;28;20894;-75
2021/10/12 03:59:45;;;;;;;19.03;8.57;;;;;;;;;;5054009;28;20429;-75
2021/10/12 04:02:11;;;;;;;15.30;8.10;;;;;;;;;;5038635;28;20843;-75
2021/10/12 04:04:43;;;;;;;18.20;8.63;;;;;;;;;;5055272;28;20414;-74
2021/10/12 04:07:09;;;;;;;14.90;7.93;;;;;;;;;;5046773;28;20420;-75
2021/10/12 04:09:35;;;;;;;15.97;7.73;;;;;;;;;;5056247;28;20935;-74
2021/10/12 04:12:01;;;;;;;15.90;7.93;;;;;;;;;;5042085;28;20921;-74
2021/10/12 04:14:27;;;;;;;12.90;7.63;;;;;;;;;;5044879;28;20771;-74
2021/10/12 04:16:53;;;;;;;20.37;8.50;;;;;;;;;;5054607;28;20457;-73
2021/10/12 04:19:25;;;;;;;10.23;7.30;;;;;;;;;;5038225;28;20762;-79
2021/10/12 04:21:55;;;;;;;13.37;7.87;;;;;;;;;;5049041;28;20434;-77
2021/10/12 04:24:21;;;;;;;15.70;8.10;;;;;;;;;;5041754;28;20413;-72
2021/10/12 04:26:47;;;;;;;20.27;8.83;;;;;;;;;;5048013;28;20433;-73
2021/10/12 04:29:14;;;;;;;15.60;7.77;;;;;;;;;;5046157;28;20438;-74
2021/10/12 04:31:40;;;;;;;14.97;7.17;;;;;;;;;;5043331;28;20566;-74
2021/10/12 04:34:06;;;;;;;16.23;8.53;;;;;;;;;;5035448;28;20729;-73
2021/10/12 04:36:32;;;;;;;15.10;7.73;;;;;;;;;;5039598;28;20426;-73
2021/10/12 04:38:58;;;;;;;14.77;8.43;;;;;;;;;;5050881;28;20478;-75
2021/10/12 04:41:24;;;;;;;27.53;8.10;;;;;;;;;;5043105;28;20842;-75
2021/10/12 04:43:50;;;;;;;21.80;7.80;;;;;;;;;;5054716;28;20471;-75
2021/10/12 04:46:17;;;;;;;19.30;8.60;;;;;;;;;;5052912;28;20406;-75
2021/10/12 04:48:44;;;;;;;14.27;7.67;;;;;;;;;;5041977;28;20434;-75
2021/10/12 04:51:10;;;;;;;15.00;7.67;;;;;;;;;;5051529;28;20445;-74
2021/10/12 04:53:49;;;;;;;18.23;8.60;;;;;;;;;;5054339;28;20465;-74
2021/10/12 04:56:15;;;;;;;17.63;8.60;;;;;;;;;;5047697;28;20885;-75
2021/10/12 04:58:41;;;;;;;16.83;8.00;;;;;;;;;;5041688;28;20914;-74
2021/10/12 05:01:07;;;;;;;18.03;8.90;;;;;;;;;;5045089;28;20434;-75
2021/10/12 05:03:33;;;;;;;15.63;7.10;;;10.30;1.00;;;;;;5038908;28;20435;-74
2021/10/12 05:05:59;;;;;;;15.53;7.80;;;;;;;;;;5043306;28;20434;-75
2021/10/12 05:08:25;;;;;;;19.80;8.47;;;10.30;1.00;;;;;;5044317;28;20185;-74
2021/10/12 05:10:55;;;;;;;26.30;9.20;;;10.30;1.00;;;;;;5051228;28;20783;-74
2021/10/12 05:13:21;;;;;;;20.03;8.03;;;10.30;1.00;;;;;;5054404;28;20654;-75
2021/10/12 05:15:47;;;;;;;14.90;8.37;;;10.30;1.00;;;;;;5047140;28;20438;-75
2021/10/12 05:18:22;;;;;;;16.77;9.17;;;;;;;;;;5035617;28;20480;-75
2021/10/12 05:20:49;;;;;;;17.47;8.67;;;10.30;1.00;;;;;;5043641;28;20520;-74
2021/10/12 05:23:15;;;;;;;17.63;8.30;;;10.30;1.00;;;;;;5053523;28;20428;-74
2021/10/12 05:25:44;;;;;;;20.73;8.40;;;10.30;1.00;;;;;;5063902;28;20438;-77
2021/10/12 05:28:10;;;;;;;16.10;7.67;;;;;;;;;;5049986;28;20809;-75
2021/10/12 05:30:42;;;;;;;14.37;7.90;;;10.30;1.00;;;;;;5046193;28;20437;-73
2021/10/12 05:33:11;;;;;;;18.93;8.47;;;;;;;;;;5044138;28;20454;-74
2021/10/12 05:35:44;;;;;;;18.00;7.57;;;10.40;1.00;;;;;;5046407;28;20424;-74
2021/10/12 05:38:10;;;;;;;18.43;7.33;;;10.40;1.00;;;;;;5053083;28;20438;-74
2021/10/12 05:40:36;;;;;;;16.33;8.80;;;;;;;;;;5054399;28;20420;-74
2021/10/12 05:43:02;;;;;;;17.67;8.53;;;10.40;1.00;;;;;;5047064;28;20480;-74
2021/10/12 05:45:28;;;;;;;17.87;9.33;;;;;;;;;;5039325;28;20435;-74
2021/10/12 05:47:54;;;;;;;18.33;8.90;;;10.40;1.00;;;;;;5053481;28;20477;-74
2021/10/12 05:50:25;;;;;;;22.13;9.37;;;;;;;;;;5050302;28;20508;-74
2021/10/12 05:58:25;;;;;;;44.30;12.27;;;;;;;;;;5047427;28;20477;-74
2021/10/12 06:00:51;;;;;;;53.60;12.63;;;;;;;;;;5047528;28;20422;-74
2021/10/12 06:03:17;;;;;;;12.93;7.63;;;;;;;;;;5038774;28;20967;-75
2021/10/12 06:05:43;;;;;;;22.60;9.60;;;10.60;1.00;;;;;;5049359;28;20418;-74
2021/10/12 06:08:09;;;;;;;22.40;9.23;;;;;;;;;;5050971;28;20467;-74
2021/10/12 06:10:38;;;;;;;27.03;8.60;;;;;;;;;;5048304;28;20608;-73
2021/10/12 06:13:09;;;;;;;13.13;7.93;;;;;;;;;;5046238;28;20501;-73
2021/10/12 06:15:38;;;;;;;16.70;8.13;;;;;;;;;;5033984;28;20518;-73
2021/10/12 06:18:04;;;;;;;13.90;7.73;;;;;;;;;;5044623;28;20793;-74
2021/10/12 06:20:31;;;;;;;15.67;8.87;;;;;;;;;;5050380;28;20892;-73
2021/10/12 06:22:57;;;;;;;20.97;8.87;;;;;;;;;;5050696;28;20767;-73
2021/10/12 06:25:25;;;;;;;18.00;8.63;;;;;;;;;;5044364;28;20513;-74
2021/10/12 06:27:51;;;;;;;13.30;8.00;;;;;;;;;;5042114;28;20798;-74
2021/10/12 06:30:18;;;;;;;20.83;9.20;;;;;;;;;;5037218;28;20410;-74
2021/10/12 06:32:44;;;;;;;17.57;8.00;;;;;;;;;;5039633;28;20458;-74
2021/10/12 06:35:10;;;;;;;22.90;8.20;;;;;;;;;;5036591;28;20506;-75
2021/10/12 06:37:36;;;;;;;24.07;9.97;;;;;;;;;;5038511;28;20460;-74
2021/10/12 06:40:03;;;;;;;27.20;8.40;;;;;;;;;;5050738;28;20918;-73
2021/10/12 06:42:29;;;;;;;15.87;8.40;;;;;;;;;;5044348;28;20411;-73
2021/10/12 06:44:55;;;;;;;21.00;8.00;;;10.80;1.00;;;;;;5049718;28;20414;-73
2021/10/12 06:47:21;;;;;;;17.90;8.00;;;;;;;;;;5053006;28;20422;-73
2021/10/12 06:49:47;;;;;;;18.80;7.17;;;;;;;;;;5050395;28;20423;-73
2021/10/12 06:52:13;;;;;;;19.23;7.27;;;;;;;;;;5057119;28;21079;-73
2021/10/12 06:54:40;;;;;;;16.67;7.80;;;;;;;;;;5041462;28;20418;-73
2021/10/12 06:57:12;;;;;;;15.03;8.03;;;;;;;;;;5038538;28;20476;-73
2021/10/12 06:59:38;;;;;;;15.63;8.07;;;;;;;;;;5051870;28;20453;-73
2021/10/12 07:02:04;;;;;;;13.23;7.50;;;;;;;;;;5043106;28;20443;-73
2021/10/12 07:04:30;;;;;;;18.90;6.93;;;;;;;;;;5032150;28;20797;-73
2021/10/12 07:06:56;;;;;;;13.93;6.73;;;;;;;;;;5032279;28;20415;-73
2021/10/12 07:09:22;;;;;;;22.50;7.50;;;;;;;;;;5034774;28;20473;-73
2021/10/12 07:11:48;;;;;;;11.03;6.50;;;;;;;;;;5041179;28;20458;-73
2021/10/12 07:14:15;;;;;;;13.53;7.23;;;;;;;;;;5042930;28;20427;-73
2021/10/12 07:16:41;;;;;;;10.10;6.33;;;;;;;;;;5044712;28;20469;-73
2021/10/12 07:19:07;;;;;;;10.50;6.23;;;;;;;;;;5034721;28;20415;-74
2021/10/12 07:21:34;;;;;;;13.27;6.90;;;11.40;1.00;;;;;;5050073;28;20464;-74
2021/10/12 07:24:00;;;;;;;12.07;6.90;;;;;;;;;;5047728;28;20406;-74
2021/10/12 07:26:26;;;;;;;10.80;6.27;;;;;;;;;;5042261;28;20417;-74
2021/10/12 07:28:53;;;;;;;19.37;6.97;;;;;;;;;;5050705;28;20493;-75
2021/10/12 07:31:19;;;;;;;10.20;6.43;;;;;;;;;;5045208;28;20410;-74
2021/10/12 07:33:45;;;;;;;16.90;6.37;;;;;;;;;;5052914;28;20466;-74
2021/10/12 07:36:11;;;;;;;25.83;6.97;;;;;;;;;;5053955;28;20433;-75
2021/10/12 07:38:37;;;;;;;10.00;6.73;;;12.00;1.00;;;;;;5055290;28;20448;-75
2021/10/12 07:41:03;;;;;;;12.20;6.10;;;;;;;;;;5053352;28;20833;-74
2021/10/12 07:43:29;;;;;;;9.10;5.67;;;;;;;;;;5053524;28;20187;-75
2021/10/12 07:45:55;;;;;;;24.10;8.07;;;;;;;;;;5039127;28;20517;-75
2021/10/12 07:48:23;;;;;;;13.37;5.70;;;;;;;;;;5038984;28;20499;-75
2021/10/12 07:50:49;;;;;;;13.37;6.57;;;;;;;;;;5053091;28;20440;-75
2021/10/12 07:53:15;;;;;;;13.60;6.23;;;;;;;;;;5047069;28;20946;-74
2021/10/12 07:55:53;;;;;;;13.93;5.33;;;;;;;;;;5044448;28;20437;-73
2021/10/12 07:58:19;;;;;;;11.17;5.50;;;;;;;;;;5051110;28;20448;-73
2021/10/12 08:00:45;;;;;;;8.87;5.33;;;;;;;;;;5055205;28;20889;-74
2021/10/12 08:03:12;;;;;;;9.87;5.00;;;;;;;;;;5046577;28;20418;-74
2021/10/12 08:05:39;;;;;;;9.63;4.70;;;;;;;;;;5047659;28;20442;-74
2021/10/12 08:08:04;;;;;;;7.60;4.87;;;12.30;1.00;;;;;;5054118;28;20422;-74
2021/10/12 08:10:31;;;;;;;9.87;4.80;;;12.40;1.00;;;;;;5052791;28;20827;-74
2021/10/12 08:13:00;;;;;;;7.57;4.90;;;;;;;;;;5049949;28;20557;-74
2021/10/12 08:15:27;;;;;;;10.23;4.20;;;;;;;;;;5054490;28;20430;-75
2021/10/12 08:17:53;;;;;;;8.30;5.40;;;;;;;;;;5054719;28;20448;-74
2021/10/12 08:20:19;;;;;;;6.90;4.67;;;;;;;;;;5054786;28;20414;-74
2021/10/12 08:22:45;;;;;;;10.33;4.50;;;;;;;;;;5053553;28;20475;-74
2021/10/12 08:25:11;;;;;;;17.77;5.63;;;;;;;;;;5033832;28;20464;-73
2021/10/12 08:27:38;;;;;;;10.30;5.40;;;12.60;1.00;;;;;;5048384;28;20426;-73
2021/10/12 08:30:06;;;;;;;10.70;4.70;;;12.50;1.00;;;;;;5054508;28;20425;-73
2021/10/12 08:32:32;;;;;;;17.23;4.77;;;;;;;;;;5050699;28;20450;-74
2021/10/12 08:34:58;;;;;;;5.43;4.30;;;;;;;;;;5054662;28;20475;-74
2021/10/12 08:37:25;;;;;;;10.53;4.73;;;;;;;;;;5054010;28;20894;-73
2021/10/12 08:39:51;;;;;;;7.03;4.33;;;;;;;;;;5054059;28;20430;-73
2021/10/12 08:42:22;;;;;;;9.63;4.83;;;12.40;1.00;;;;;;5054262;28;20414;-74
2021/10/12 08:44:55;;;;;;;6.43;4.00;;;12.40;1.00;;;;;;5044044;28;20430;-74
2021/10/12 08:47:23;;;;;;;5.13;4.10;;;12.30;1.00;;;;;;5054023;28;20418;-74
2021/10/12 08:49:49;;;;;;;12.83;4.47;;;;;;;;;;5051893;28;20431;-74
2021/10/12 08:52:15;;;;;;;8.60;4.63;;;;;;;;;;5053734;28;20464;-74
2021/10/12 08:54:41;;;;;;;9.50;4.63;;;;;;;;;;5053682;28;20465;-74
2021/10/12 08:57:07;;;;;;;7.70;3.53;;;;;;;;;;5043935;28;20421;-74
2021/10/12 08:59:33;;;;;;;7.07;3.93;;;;;;;;;;5052564;28;20501;-74
2021/10/12 09:02:02;;;;;;;6.70;3.50;;;12.20;1.00;;;;;;5048938;28;20462;-74
2021/10/12 09:04:42;;;;;;;7.90;3.27;;;12.30;1.00;;;;;;5041919;28;20493;-74
2021/10/12 09:07:24;;;;;;;7.20;3.43;;;12.20;1.00;;;;;;5041375;28;20441;-74
2021/10/12 09:09:51;;;;;;;6.00;3.70;;;;;;;;;;5049866;28;20422;-74
2021/10/12 09:12:17;;;;;;;11.23;4.43;;;;;;;;;;5044882;28;20458;-74
2021/10/12 09:14:55;;;;;;;7.63;3.63;;;12.30;1.00;;;;;;5049488;28;20406;-74
2021/10/12 09:17:32;;;;;;;3.57;3.27;;;12.30;1.00;;;;;;5053557;28;20411;-74
2021/10/12 09:19:59;;;;;;;7.67;3.57;;;12.30;1.00;;;;;;5046286;28;20952;-74
2021/10/12 09:22:26;;;;;;;4.77;3.17;;;;;;;;;;5044934;28;20844;-74
2021/10/12 09:24:52;;;;;;;6.17;3.67;;;;;;;;;;5040307;28;20456;-74
2021/10/12 09:27:20;;;;;;;4.40;3.20;;;;;;;;;;5043088;28;20427;-74
2021/10/12 09:29:50;;;;;;;7.53;3.27;;;;;;;;;;5053220;28;20410;-74
2021/10/12 09:32:16;;;;;;;10.77;3.73;;;;;;;;;;5053552;28;20501;-75
2021/10/12 09:34:45;;;;;;;10.80;3.17;;;;;;;;;;5053069;28;20504;-74
2021/10/12 09:37:11;;;;;;;11.83;3.70;;;;;;;;;;5052839;28;20389;-74
2021/10/12 09:39:49;;;;;;;14.93;4.37;;;12.40;1.00;;;;;;5052980;28;20441;-74
2021/10/12 09:42:17;;;;;;;7.47;3.73;;;12.60;1.00;;;;;;5039801;28;20460;-75
2021/10/12 09:44:56;;;;;;;6.70;3.83;;;12.70;1.00;;;;;;5033727;28;20438;-74
2021/10/12 09:47:23;;;;;;;9.77;4.37;;;;;;;;;;5050529;28;20426;-74
2021/10/12 09:49:50;;;;;;;5.87;4.00;;;;;;;;;;5045763;28;20453;-74
2021/10/12 09:52:17;;;;;;;8.50;4.40;;;13.10;1.00;;;;;;5052937;28;20453;-74
2021/10/12 09:54:49;;;;;;;13.33;4.40;;;;;;;;;;5052631;28;20421;-75
2021/10/12 09:57:19;;;;;;;7.10;4.03;;;13.20;1.00;;;;;;5052514;28;20429;-74
2021/10/12 09:59:47;;;;;;;9.03;4.40;;;13.30;1.00;;;;;;5052725;28;20879;-74
2021/10/12 10:02:16;;;;;;;6.90;5.10;;;13.40;1.00;;;;;;5040929;28;20442;-74
2021/10/12 10:04:43;;;;;;;6.73;4.40;;;13.40;1.00;;;;;;5052624;28;20507;-74
2021/10/12 10:07:23;;;;;;;8.33;4.13;;;13.40;1.00;;;;;;5052709;28;20423;-74
2021/10/12 10:09:54;;;;;;;9.13;4.80;;;13.50;1.00;;;;;;5052517;28;20392;-74
2021/10/12 10:12:20;;;;;;;7.47;4.10;;;13.60;1.00;;;;;;5046293;28;20461;-75
2021/10/12 10:14:46;;;;;;;9.67;4.33;;;;;;;;;;5052427;28;20508;-74
2021/10/12 10:17:13;;;;;;;5.00;3.87;;;13.80;1.00;;;;;;5052711;28;20813;-75
2021/10/12 10:19:46;;;;;;;4.70;3.60;;;13.80;1.00;;;;;;5049060;28;20442;-75
2021/10/12 10:22:39;;;;;;;9.40;3.80;;;13.80;1.00;;;;;;5031218;28;20427;-75
2021/10/12 10:25:29;;;;;;;10.47;4.13;;;13.60;1.00;;;;;;5039909;28;20939;-74
2021/10/12 10:27:58;;;;;;;9.03;4.50;;;13.60;1.00;;;;;;5045966;28;20430;-74
2021/10/12 10:30:33;;;;;;;12.47;4.37;;;13.50;1.00;;;;;;5039458;28;20443;-74
2021/10/12 10:33:04;;;;;;;7.23;3.80;;;13.50;1.00;;;;;;5052031;28;20464;-74
2021/10/12 10:35:41;;;;;;;5.90;3.20;;;13.50;1.00;;;;;;5052365;28;20433;-74
2021/10/12 10:38:26;;;;;;;14.70;4.83;;;13.50;1.00;;;;;;5046641;28;20785;-74
2021/10/12 10:41:04;;;;;;;5.30;3.50;;;13.60;1.00;;;;;;5052288;28;20421;-74
2021/10/12 10:43:48;;;;;;;12.40;3.87;;;13.60;1.00;;;;;;5052686;28;20778;-74
2021/10/12 10:46:33;;;;;;;5.13;3.23;;;;;;;;;;5052296;28;20770;-74
2021/10/12 10:49:17;;;;;;;11.00;4.10;;;13.60;1.00;;;;;;5052292;28;20418;-74
2021/10/12 10:51:56;;;;;;;8.37;4.07;;;13.60;1.00;;;;;;5050156;28;20432;-74
2021/10/12 10:54:37;;;;;;;9.60;3.67;;;13.50;1.00;;;;;;5052311;28;20414;-74
2021/10/12 10:57:19;;;;;;;6.07;3.80;;;13.50;1.00;;;;;;5052588;28;20483;-74
2021/10/12 10:59:46;;;;;;;7.13;3.80;;;13.40;1.00;;;;;;5052224;28;20396;-74
2021/10/12 11:02:28;;;;;;;10.30;3.83;;;13.40;1.00;;;;;;5052121;28;20432;-74
2021/10/12 11:04:54;;;;;;;5.87;3.23;;;13.40;1.00;;;;;;5048043;28;20441;-74
2021/10/12 11:07:21;;;;;;;10.67;4.30;;;13.40;1.00;;;;;;5048544;28;20447;-74
2021/10/12 11:09:47;;;;;;;4.00;3.27;;;;;;;;;;5048642;28;20936;-74
2021/10/12 11:12:21;;;;;;;6.20;3.87;;;13.50;1.00;;;;;;5048428;28;20544;-74
2021/10/12 11:14:52;;;;;;;6.87;3.87;;;13.50;1.00;;;;;;5055055;28;20856;-75
2021/10/12 11:17:18;;;;;;;8.13;3.80;;;13.50;1.00;;;;;;5056483;28;20512;-75
2021/10/12 11:19:58;;;;;;;8.80;4.17;;;13.60;1.00;;;;;;5055882;28;20752;-75
2021/10/12 11:22:26;;;;;;;12.93;4.30;;;13.60;1.00;;;;;;5049755;28;20420;-74
2021/10/12 11:24:53;;;;;;;11.70;4.53;;;13.70;1.00;;;;;;5046615;28;20512;-75
2021/10/12 11:27:19;;;;;;;9.30;3.57;;;13.80;1.00;;;;;;5052307;28;20518;-74
2021/10/12 11:29:46;;;;;;;23.40;5.77;;;;;;;;;;5052832;28;20433;-74
2021/10/12 11:32:12;;;;;;;7.90;3.40;;;;;;;;;;5046112;28;20969;-74
2021/10/12 11:34:38;;;;;;;3.30;2.50;;;;;;;;;;5054152;28;20430;-74
2021/10/12 11:37:12;;;;;;;7.60;2.77;;;13.50;1.00;;;;;;5053931;28;20547;-74
2021/10/12 11:39:38;;;;;;;5.93;3.07;;;;;;;;;;5051206;28;20446;-74
2021/10/12 11:42:05;;;;;;;5.20;2.80;;;13.50;1.00;;;;;;5055443;28;20410;-75
2021/10/12 11:44:32;;;;;;;3.27;2.07;;;;;;;;;;5055551;28;20982;-74
2021/10/12 11:47:02;;;;;;;6.23;2.70;;;13.40;1.00;;;;;;5055303;28;20820;-74
2021/10/12 11:49:29;;;;;;;3.83;2.80;;;;;;;;;;5049914;28;20431;-75
2021/10/12 11:51:54;;;;;;;9.10;3.23;;;;;;;;;;5047253;28;20493;-75
2021/10/12 11:54:23;;;;;;;3.40;2.10;;;13.50;1.00;;;;;;5052920;28;20936;-75
2021/10/12 11:56:51;;;;;;;5.23;2.60;;;;;;;;;;5041189;28;20881;-74
2021/10/12 11:59:17;;;;;;;7.63;2.93;;;;;;;;;;5055493;28;20423;-74
2021/10/12 12:01:43;;;;;;;10.40;3.40;;;;;;;;;;5046590;28;20903;-74
2021/10/12 12:04:10;;;;;;;11.43;2.37;;;;;;;;;;5053620;28;20400;-74
2021/10/12 12:06:39;;;;;;;7.40;3.27;;;13.60;1.00;;;;;;5053637;28;20465;-74
2021/10/12 12:09:25;;;;;;;13.73;3.37;;;13.50;1.00;;;;;;5049300;28;20481;-75
2021/10/12 12:11:54;;;;;;;4.57;2.30;;;;;;;;;;5039327;28;20575;-74
2021/10/12 12:14:24;;;;;;;4.00;2.23;;;;;;;;;;5042947;28;20422;-75
2021/10/12 12:17:18;;;;;;;4.57;2.33;;;13.60;1.00;;;;;;5042783;28;20577;-74
2021/10/12 12:19:49;;;;;;;4.57;2.20;;;;;;;;;;5034192;28;20393;-74
2021/10/12 12:22:15;;;;;;;3.60;2.27;;;;;;;;;;5042200;28;20979;-74
2021/10/12 12:24:52;;;;;;;3.10;2.10;;;13.80;1.00;;;;;;5050177;28;20411;-74
2021/10/12 12:27:18;;;;;;;6.97;1.83;;;;;;;;;;5054689;28;20417;-74
2021/10/12 12:29:44;;;;;;;2.03;1.47;;;;;;;;;;5054785;28;20395;-74
2021/10/12 12:32:13;;;;;;;4.73;1.90;;;13.80;1.00;;;;;;5048707;28;20437;-74
2021/10/12 12:34:41;;;;;;;1.67;1.57;;;;;;;;;;5050233;28;20401;-74
2021/10/12 12:37:07;;;;;;;3.30;1.70;;;;;;;;;;5055214;28;20397;-74
2021/10/12 12:39:38;;;;;;;4.80;2.10;;;13.70;1.00;;;;;;5034205;28;20431;-74
2021/10/12 12:42:08;;;;;;;2.90;1.77;;;13.60;1.00;;;;;;5034066;28;20732;-74
2021/10/12 12:44:34;;;;;;;3.30;2.10;;;;;;;;;;5034771;28;20419;-74
2021/10/12 12:47:01;;;;;;;6.57;2.30;;;;;;;;;;5034053;28;20425;-74
2021/10/12 12:49:28;;;;;;;9.80;2.10;;;;;;;;;;5048627;28;20423;-74
2021/10/12 12:51:55;;;;;;;7.83;1.80;;;;;;;;;;5053935;28;20450;-74
2021/10/12 12:54:46;;;;;;;1.90;1.70;;;14.10;1.00;;;;;;5050147;28;20896;-75
2021/10/12 12:57:19;;;;;;;1.60;1.50;;;;;;;;;;5054185;28;20449;-75
2021/10/12 13:00:11;;;;;;;2.33;1.87;;;14.20;1.00;;;;;;5050508;28;20488;-74
2021/10/12 13:02:37;;;;;;;2.10;1.90;;;;;;;;;;5053984;28;20421;-76
2021/10/12 13:05:03;;;;;;;1.93;1.70;;;;;;;;;;5053951;28;20421;-75
2021/10/12 13:07:29;;;;;;;2.80;1.57;;;;;;;;;;5053964;28;20979;-76
2021/10/12 13:09:56;;;;;;;4.00;1.70;;;;;;;;;;5053980;28;20924;-74
2021/10/12 13:12:24;;;;;;;3.07;1.77;;;;;;;;;;5041473;28;20469;-74
2021/10/12 13:14:51;;;;;;;2.60;1.70;;;14.00;1.00;;;;;;5053998;28;20426;-74
2021/10/12 13:17:20;;;;;;;1.67;1.57;;;;;;;;;;5054326;28;20408;-74
2021/10/12 13:19:46;;;;;;;3.17;1.67;;;;;;;;;;5057168;28;20384;-74
2021/10/12 13:22:13;;;;;;;7.17;2.27;;;;;;;;;;5044090;28;20398;-74
2021/10/12 13:24:39;;;;;;;3.47;2.50;;;;;;;;;;5033613;28;20920;-74
2021/10/12 13:27:05;;;;;;;3.07;2.43;;;;;;;;;;5047544;28;20921;-74
2021/10/12 13:29:31;;;;;;;12.30;2.33;;;;;;;;;;5053756;28;20447;-75
2021/10/12 13:32:00;;;;;;;2.80;2.17;;;;;;;;;;5052287;28;20813;-75
2021/10/12 13:34:26;;;;;;;2.60;2.40;;;;;;;;;;5053467;28;20389;-75
2021/10/12 13:36:52;;;;;;;6.67;2.50;;;;;;;;;;5052922;28;20418;-74
2021/10/12 13:39:18;;;;;;;7.83;2.53;;;;;;;;;;5053205;28;20572;-74
2021/10/12 13:41:44;;;;;;;4.23;2.20;;;;;;;;;;5052936;28;20414;-74
2021/10/12 13:44:10;;;;;;;4.90;2.70;;;;;;;;;;5052091;28;20414;-74
2021/10/12 13:46:36;;;;;;;2.17;1.97;;;;;;;;;;5053466;28;20396;-74
2021/10/12 13:49:02;;;;;;;3.43;1.93;;;;;;;;;;5045991;28;20449;-74
2021/10/12 13:51:28;;;;;;;11.30;3.03;;;;;;;;;;5046948;28;20403;-74
2021/10/12 13:53:54;;;;;;;5.83;2.50;;;;;;;;;;5051784;28;20440;-74
2021/10/12 13:56:20;;;;;;;9.07;2.97;;;;;;;;;;5052944;28;20418;-75
2021/10/12 13:58:46;;;;;;;3.80;2.20;;;;;;;;;;5040951;28;20422;-74
2021/10/12 14:01:12;;;;;;;6.37;2.60;;;;;;;;;;5043689;28;20396;-74
2021/10/12 14:03:38;;;;;;;2.93;2.07;;;;;;;;;;5043796;28;20425;-74
2021/10/12 14:06:04;;;;;;;3.17;2.20;;;;;;;;;;5050238;28;20772;-74
2021/10/12 14:08:30;;;;;;;5.93;2.60;;;;;;;;;;5052854;28;20421;-74
2021/10/12 14:10:57;;;;;;;5.47;2.27;;;;;;;;;;5051476;28;20441;-74